sensor_id;sensor_type;location;lat;lon;timestamp;P1;durP1;ratioP1;P2;durP2;ratioP2
64011;SDS011;50211;52.768;12.124;2023-05-07T00:00:16;20.33;;;9.40;;
64011;SDS011;50211;52.768;12.124;2023-05-07T00:02:43;18.23;;;10.10;;
64011;SDS011;50211;52.768;12.124;2023-05-07T00:05:10;20.73;;;10.10;;
64011;SDS011;50211;52.768;12.124;2023-05-07T00:07:35;19.43;;;9.93;;
64011;SDS011;50211;52.768;12.124;2023-05-07T00:10:01;18.43;;;9.87;;
64011;SDS011;50211;52.768;12.124;2023-05-07T00:12:27;19.13;;;10.13;;
64011;SDS011;50211;52.768;12.124;2023-05-07T00:14:56;21.33;;;9.97;;
64011;SDS011;50211;52.768;12.124;2023-05-07T00:17:22;19.87;;;10.40;;
64011;SDS011;50211;52.768;12.124;2023-05-07T00:19:47;17.07;;;9.17;;
64011;SDS011;50211;52.768;12.124;2023-05-07T00:22:13;20.00;;;9.83;;
64011;SDS011;50211;52.768;12.124;2023-05-07T00:24:38;17.90;;;9.67;;
64011;SDS011;50211;52.768;12.124;2023-05-07T00:27:04;20.20;;;9.70;;
64011;SDS011;50211;52.768;12.124;2023-05-07T00:29:30;18.83;;;10.10;;
64011;SDS011;50211;52.768;12.124;2023-05-07T00:31:55;16.83;;;9.07;;
64011;SDS011;50211;52.768;12.124;2023-05-07T00:34:21;17.07;;;9.50;;
64011;SDS011;50211;52.768;12.124;2023-05-07T00:36:47;18.60;;;9.90;;
64011;SDS011;50211;52.768;12.124;2023-05-07T00:39:12;20.83;;;9.93;;
64011;SDS011;50211;52.768;12.124;2023-05-07T00:41:38;20.07;;;9.50;;
64011;SDS011;50211;52.768;12.124;2023-05-07T00:44:03;18.17;;;9.97;;
64011;SDS011;50211;52.768;12.124;2023-05-07T00:46:29;22.70;;;10.43;;
64011;SDS011;50211;52.768;12.124;2023-05-07T00:48:55;18.73;;;9.60;;
64011;SDS011;50211;52.768;12.124;2023-05-07T00:51:21;21.07;;;9.90;;
64011;SDS011;50211;52.768;12.124;2023-05-07T00:53:48;21.43;;;10.37;;
64011;SDS011;50211;52.768;12.124;2023-05-07T00:56:13;18.90;;;9.67;;
64011;SDS011;50211;52.768;12.124;2023-05-07T00:58:39;17.90;;;9.10;;
64011;SDS011;50211;52.768;12.124;2023-05-07T01:01:05;20.37;;;10.27;;
64011;SDS011;50211;52.768;12.124;2023-05-07T01:03:31;19.83;;;10.83;;
64011;SDS011;50211;52.768;12.124;2023-05-07T01:05:56;19.23;;;10.30;;
64011;SDS011;50211;52.768;12.124;2023-05-07T01:08:23;20.33;;;10.03;;
64011;SDS011;50211;52.768;12.124;2023-05-07T01:10:51;18.00;;;9.47;;
64011;SDS011;50211;52.768;12.124;2023-05-07T01:13:17;22.17;;;10.00;;
64011;SDS011;50211;52.768;12.124;2023-05-07T01:15:43;17.73;;;9.63;;
64011;SDS011;50211;52.768;12.124;2023-05-07T01:18:09;19.70;;;10.37;;
64011;SDS011;50211;52.768;12.124;2023-05-07T01:20:35;18.30;;;10.13;;
64011;SDS011;50211;52.768;12.124;2023-05-07T01:23:00;17.47;;;9.97;;
64011;SDS011;50211;52.768;12.124;2023-05-07T01:25:28;20.13;;;9.57;;
64011;SDS011;50211;52.768;12.124;2023-05-07T01:27:53;17.60;;;9.07;;
64011;SDS011;50211;52.768;12.124;2023-05-07T01:30:20;18.13;;;10.20;;
64011;SDS011;50211;52.768;12.124;2023-05-07T01:32:51;19.17;;;9.53;;
64011;SDS011;50211;52.768;12.124;2023-05-07T01:35:22;20.37;;;10.23;;
64011;SDS011;50211;52.768;12.124;2023-05-07T01:37:52;19.13;;;9.80;;
64011;SDS011;50211;52.768;12.124;2023-05-07T01:40:19;16.33;;;9.13;;
64011;SDS011;50211;52.768;12.124;2023-05-07T01:42:44;14.77;;;8.93;;
64011;SDS011;50211;52.768;12.124;2023-05-07T01:45:11;15.73;;;9.30;;
64011;SDS011;50211;52.768;12.124;2023-05-07T01:47:37;18.00;;;9.90;;
64011;SDS011;50211;52.768;12.124;2023-05-07T01:50:05;18.37;;;10.47;;
64011;SDS011;50211;52.768;12.124;2023-05-07T01:52:32;17.67;;;9.63;;
64011;SDS011;50211;52.768;12.124;2023-05-07T01:54:59;21.43;;;10.20;;
64011;SDS011;50211;52.768;12.124;2023-05-07T01:57:24;16.57;;;9.83;;
64011;SDS011;50211;52.768;12.124;2023-05-07T01:59:50;16.77;;;9.57;;
64011;SDS011;50211;52.768;12.124;2023-05-07T02:02:15;20.50;;;9.83;;
64011;SDS011;50211;52.768;12.124;2023-05-07T02:04:41;18.03;;;9.40;;
64011;SDS011;50211;52.768;12.124;2023-05-07T02:07:06;20.80;;;10.10;;
64011;SDS011;50211;52.768;12.124;2023-05-07T02:09:32;15.90;;;9.77;;
64011;SDS011;50211;52.768;12.124;2023-05-07T02:11:57;15.10;;;8.93;;
64011;SDS011;50211;52.768;12.124;2023-05-07T02:14:23;16.40;;;9.07;;
64011;SDS011;50211;52.768;12.124;2023-05-07T02:16:48;21.17;;;10.17;;
64011;SDS011;50211;52.768;12.124;2023-05-07T02:19:14;19.23;;;10.17;;
64011;SDS011;50211;52.768;12.124;2023-05-07T02:21:39;16.97;;;9.53;;
64011;SDS011;50211;52.768;12.124;2023-05-07T02:24:05;17.47;;;9.27;;
64011;SDS011;50211;52.768;12.124;2023-05-07T02:26:30;20.63;;;9.87;;
64011;SDS011;50211;52.768;12.124;2023-05-07T02:28:56;20.90;;;10.77;;
64011;SDS011;50211;52.768;12.124;2023-05-07T02:31:22;19.43;;;9.63;;
64011;SDS011;50211;52.768;12.124;2023-05-07T02:33:47;17.63;;;9.50;;
64011;SDS011;50211;52.768;12.124;2023-05-07T02:36:13;15.77;;;9.03;;
64011;SDS011;50211;52.768;12.124;2023-05-07T02:38:38;14.43;;;9.90;;
64011;SDS011;50211;52.768;12.124;2023-05-07T02:41:04;13.47;;;8.63;;
64011;SDS011;50211;52.768;12.124;2023-05-07T02:43:29;16.60;;;9.07;;
64011;SDS011;50211;52.768;12.124;2023-05-07T02:46:05;16.50;;;9.07;;
64011;SDS011;50211;52.768;12.124;2023-05-07T02:48:31;16.37;;;9.73;;
64011;SDS011;50211;52.768;12.124;2023-05-07T02:50:57;15.23;;;8.83;;
64011;SDS011;50211;52.768;12.124;2023-05-07T02:53:24;16.63;;;9.13;;
64011;SDS011;50211;52.768;12.124;2023-05-07T02:55:53;18.40;;;8.60;;
64011;SDS011;50211;52.768;12.124;2023-05-07T02:58:19;16.13;;;8.30;;
64011;SDS011;50211;52.768;12.124;2023-05-07T03:00:45;15.57;;;9.03;;
64011;SDS011;50211;52.768;12.124;2023-05-07T03:03:10;15.57;;;8.37;;
64011;SDS011;50211;52.768;12.124;2023-05-07T03:05:36;17.97;;;9.40;;
64011;SDS011;50211;52.768;12.124;2023-05-07T03:08:02;15.80;;;8.77;;
64011;SDS011;50211;52.768;12.124;2023-05-07T03:10:28;19.70;;;9.10;;
64011;SDS011;50211;52.768;12.124;2023-05-07T03:12:54;16.00;;;9.30;;
64011;SDS011;50211;52.768;12.124;2023-05-07T03:15:20;13.50;;;7.83;;
64011;SDS011;50211;52.768;12.124;2023-05-07T03:17:46;12.97;;;7.87;;
64011;SDS011;50211;52.768;12.124;2023-05-07T03:20:12;14.17;;;8.43;;
64011;SDS011;50211;52.768;12.124;2023-05-07T03:22:38;14.97;;;9.07;;
64011;SDS011;50211;52.768;12.124;2023-05-07T03:25:04;14.30;;;8.67;;
64011;SDS011;50211;52.768;12.124;2023-05-07T03:27:30;15.73;;;8.47;;
64011;SDS011;50211;52.768;12.124;2023-05-07T03:29:56;17.07;;;8.90;;
64011;SDS011;50211;52.768;12.124;2023-05-07T03:32:21;17.07;;;9.37;;
64011;SDS011;50211;52.768;12.124;2023-05-07T03:34:47;15.23;;;8.67;;
64011;SDS011;50211;52.768;12.124;2023-05-07T03:37:12;15.13;;;9.13;;
64011;SDS011;50211;52.768;12.124;2023-05-07T03:39:38;12.73;;;8.63;;
64011;SDS011;50211;52.768;12.124;2023-05-07T03:42:03;14.97;;;8.13;;
64011;SDS011;50211;52.768;12.124;2023-05-07T03:44:29;12.00;;;7.63;;
64011;SDS011;50211;52.768;12.124;2023-05-07T03:46:54;15.10;;;8.87;;
64011;SDS011;50211;52.768;12.124;2023-05-07T03:49:20;14.60;;;8.83;;
64011;SDS011;50211;52.768;12.124;2023-05-07T03:51:46;14.73;;;8.67;;
64011;SDS011;50211;52.768;12.124;2023-05-07T03:54:11;14.47;;;7.97;;
64011;SDS011;50211;52.768;12.124;2023-05-07T03:56:38;12.50;;;7.60;;
64011;SDS011;50211;52.768;12.124;2023-05-07T03:59:03;13.20;;;7.67;;
64011;SDS011;50211;52.768;12.124;2023-05-07T04:01:29;13.03;;;7.73;;
64011;SDS011;50211;52.768;12.124;2023-05-07T04:03:55;16.70;;;8.67;;
64011;SDS011;50211;52.768;12.124;2023-05-07T04:06:20;18.27;;;8.90;;
64011;SDS011;50211;52.768;12.124;2023-05-07T04:08:46;15.17;;;8.10;;
64011;SDS011;50211;52.768;12.124;2023-05-07T04:11:12;14.13;;;8.13;;
64011;SDS011;50211;52.768;12.124;2023-05-07T04:13:38;10.97;;;7.20;;
64011;SDS011;50211;52.768;12.124;2023-05-07T04:16:04;15.53;;;8.67;;
64011;SDS011;50211;52.768;12.124;2023-05-07T04:18:30;12.67;;;8.40;;
64011;SDS011;50211;52.768;12.124;2023-05-07T04:20:56;12.87;;;7.90;;
64011;SDS011;50211;52.768;12.124;2023-05-07T04:23:21;11.07;;;7.87;;
64011;SDS011;50211;52.768;12.124;2023-05-07T04:25:47;11.97;;;7.57;;
64011;SDS011;50211;52.768;12.124;2023-05-07T04:28:12;12.80;;;8.47;;
64011;SDS011;50211;52.768;12.124;2023-05-07T04:30:38;15.97;;;8.70;;
64011;SDS011;50211;52.768;12.124;2023-05-07T04:33:04;12.43;;;8.27;;
64011;SDS011;50211;52.768;12.124;2023-05-07T04:35:31;11.47;;;7.77;;
64011;SDS011;50211;52.768;12.124;2023-05-07T04:37:57;14.27;;;8.27;;
64011;SDS011;50211;52.768;12.124;2023-05-07T04:40:22;13.60;;;8.33;;
64011;SDS011;50211;52.768;12.124;2023-05-07T04:42:48;12.90;;;7.67;;
64011;SDS011;50211;52.768;12.124;2023-05-07T04:45:13;12.30;;;7.87;;
64011;SDS011;50211;52.768;12.124;2023-05-07T04:47:39;13.63;;;8.37;;
64011;SDS011;50211;52.768;12.124;2023-05-07T04:50:06;15.27;;;7.90;;
64011;SDS011;50211;52.768;12.124;2023-05-07T04:52:32;12.70;;;7.67;;
64011;SDS011;50211;52.768;12.124;2023-05-07T04:55:01;15.00;;;7.60;;
64011;SDS011;50211;52.768;12.124;2023-05-07T04:57:26;12.30;;;6.73;;
64011;SDS011;50211;52.768;12.124;2023-05-07T04:59:52;12.77;;;7.40;;
64011;SDS011;50211;52.768;12.124;2023-05-07T05:02:18;11.57;;;7.53;;
64011;SDS011;50211;52.768;12.124;2023-05-07T05:04:44;12.63;;;7.83;;
64011;SDS011;50211;52.768;12.124;2023-05-07T05:07:10;13.23;;;7.83;;
64011;SDS011;50211;52.768;12.124;2023-05-07T05:09:35;13.73;;;7.70;;
64011;SDS011;50211;52.768;12.124;2023-05-07T05:12:00;14.57;;;8.33;;
64011;SDS011;50211;52.768;12.124;2023-05-07T05:14:26;12.27;;;7.80;;
64011;SDS011;50211;52.768;12.124;2023-05-07T05:16:51;12.77;;;7.33;;
64011;SDS011;50211;52.768;12.124;2023-05-07T05:19:17;14.80;;;7.73;;
64011;SDS011;50211;52.768;12.124;2023-05-07T05:21:43;11.87;;;7.27;;
64011;SDS011;50211;52.768;12.124;2023-05-07T05:24:08;9.90;;;6.43;;
64011;SDS011;50211;52.768;12.124;2023-05-07T05:26:34;11.00;;;7.00;;
64011;SDS011;50211;52.768;12.124;2023-05-07T05:28:59;11.57;;;6.83;;
64011;SDS011;50211;52.768;12.124;2023-05-07T05:31:25;10.70;;;6.23;;
64011;SDS011;50211;52.768;12.124;2023-05-07T05:33:50;8.67;;;5.57;;
64011;SDS011;50211;52.768;12.124;2023-05-07T05:36:16;9.93;;;6.57;;
64011;SDS011;50211;52.768;12.124;2023-05-07T05:38:42;10.27;;;5.77;;
64011;SDS011;50211;52.768;12.124;2023-05-07T05:41:07;11.27;;;6.17;;
64011;SDS011;50211;52.768;12.124;2023-05-07T05:43:33;9.43;;;5.70;;
64011;SDS011;50211;52.768;12.124;2023-05-07T05:45:58;11.77;;;6.10;;
64011;SDS011;50211;52.768;12.124;2023-05-07T05:48:25;13.33;;;6.40;;
64011;SDS011;50211;52.768;12.124;2023-05-07T05:50:50;8.57;;;5.90;;
64011;SDS011;50211;52.768;12.124;2023-05-07T05:53:16;14.03;;;6.53;;
64011;SDS011;50211;52.768;12.124;2023-05-07T05:55:41;10.93;;;6.23;;
64011;SDS011;50211;52.768;12.124;2023-05-07T05:58:08;11.17;;;6.70;;
64011;SDS011;50211;52.768;12.124;2023-05-07T06:00:34;8.97;;;5.77;;
64011;SDS011;50211;52.768;12.124;2023-05-07T06:02:59;10.63;;;6.57;;
64011;SDS011;50211;52.768;12.124;2023-05-07T06:05:25;9.10;;;6.10;;
64011;SDS011;50211;52.768;12.124;2023-05-07T06:07:51;9.00;;;5.83;;
64011;SDS011;50211;52.768;12.124;2023-05-07T06:10:16;9.97;;;5.87;;
64011;SDS011;50211;52.768;12.124;2023-05-07T06:12:42;7.20;;;5.47;;
64011;SDS011;50211;52.768;12.124;2023-05-07T06:15:07;10.00;;;6.63;;
64011;SDS011;50211;52.768;12.124;2023-05-07T06:17:33;7.83;;;5.40;;
64011;SDS011;50211;52.768;12.124;2023-05-07T06:19:59;10.00;;;6.67;;
64011;SDS011;50211;52.768;12.124;2023-05-07T06:22:24;10.27;;;5.83;;
64011;SDS011;50211;52.768;12.124;2023-05-07T06:24:50;11.17;;;5.87;;
64011;SDS011;50211;52.768;12.124;2023-05-07T06:27:15;8.97;;;6.07;;
64011;SDS011;50211;52.768;12.124;2023-05-07T06:29:41;10.10;;;6.60;;
64011;SDS011;50211;52.768;12.124;2023-05-07T06:32:07;8.40;;;5.57;;
64011;SDS011;50211;52.768;12.124;2023-05-07T06:34:33;8.40;;;6.03;;
64011;SDS011;50211;52.768;12.124;2023-05-07T06:36:58;8.90;;;6.03;;
64011;SDS011;50211;52.768;12.124;2023-05-07T06:39:24;8.13;;;6.00;;
64011;SDS011;50211;52.768;12.124;2023-05-07T06:41:49;9.00;;;4.97;;
64011;SDS011;50211;52.768;12.124;2023-05-07T06:44:15;7.20;;;5.20;;
64011;SDS011;50211;52.768;12.124;2023-05-07T06:46:41;7.70;;;4.90;;
64011;SDS011;50211;52.768;12.124;2023-05-07T06:49:07;7.00;;;4.90;;
64011;SDS011;50211;52.768;12.124;2023-05-07T06:51:32;8.23;;;5.37;;
64011;SDS011;50211;52.768;12.124;2023-05-07T06:53:58;7.80;;;4.97;;
64011;SDS011;50211;52.768;12.124;2023-05-07T06:56:24;8.60;;;5.50;;
64011;SDS011;50211;52.768;12.124;2023-05-07T06:58:50;7.23;;;5.37;;
64011;SDS011;50211;52.768;12.124;2023-05-07T07:01:15;11.60;;;4.80;;
64011;SDS011;50211;52.768;12.124;2023-05-07T07:03:41;8.03;;;5.40;;
64011;SDS011;50211;52.768;12.124;2023-05-07T07:06:07;10.00;;;5.30;;
64011;SDS011;50211;52.768;12.124;2023-05-07T07:08:32;10.57;;;4.97;;
64011;SDS011;50211;52.768;12.124;2023-05-07T07:10:58;8.17;;;4.97;;
64011;SDS011;50211;52.768;12.124;2023-05-07T07:13:23;8.23;;;4.90;;
64011;SDS011;50211;52.768;12.124;2023-05-07T07:15:49;8.20;;;4.70;;
64011;SDS011;50211;52.768;12.124;2023-05-07T07:18:14;7.97;;;5.37;;
64011;SDS011;50211;52.768;12.124;2023-05-07T07:20:40;7.77;;;5.33;;
64011;SDS011;50211;52.768;12.124;2023-05-07T07:23:05;8.47;;;5.20;;
64011;SDS011;50211;52.768;12.124;2023-05-07T07:25:31;7.23;;;4.87;;
64011;SDS011;50211;52.768;12.124;2023-05-07T07:27:57;8.17;;;4.73;;
64011;SDS011;50211;52.768;12.124;2023-05-07T07:30:22;5.90;;;4.33;;
64011;SDS011;50211;52.768;12.124;2023-05-07T07:32:48;6.63;;;4.30;;
64011;SDS011;50211;52.768;12.124;2023-05-07T07:35:13;7.30;;;4.50;;
64011;SDS011;50211;52.768;12.124;2023-05-07T07:37:39;7.40;;;4.83;;
64011;SDS011;50211;52.768;12.124;2023-05-07T07:40:05;6.07;;;4.67;;
64011;SDS011;50211;52.768;12.124;2023-05-07T07:42:31;8.87;;;4.40;;
64011;SDS011;50211;52.768;12.124;2023-05-07T07:44:56;7.33;;;4.60;;
64011;SDS011;50211;52.768;12.124;2023-05-07T07:47:22;6.30;;;4.27;;
64011;SDS011;50211;52.768;12.124;2023-05-07T07:49:48;6.37;;;4.07;;
64011;SDS011;50211;52.768;12.124;2023-05-07T07:52:13;6.63;;;4.00;;
64011;SDS011;50211;52.768;12.124;2023-05-07T07:54:39;6.77;;;4.50;;
64011;SDS011;50211;52.768;12.124;2023-05-07T07:57:04;5.80;;;3.87;;
64011;SDS011;50211;52.768;12.124;2023-05-07T07:59:30;4.93;;;3.90;;
64011;SDS011;50211;52.768;12.124;2023-05-07T08:01:55;8.40;;;3.83;;
64011;SDS011;50211;52.768;12.124;2023-05-07T08:04:22;5.22;;;3.85;;
64011;SDS011;50211;52.768;12.124;2023-05-07T08:06:47;3.95;;;3.33;;
64011;SDS011;50211;52.768;12.124;2023-05-07T08:09:13;4.72;;;3.15;;
64011;SDS011;50211;52.768;12.124;2023-05-07T08:11:39;4.30;;;3.25;;
64011;SDS011;50211;52.768;12.124;2023-05-07T08:14:05;4.75;;;3.63;;
64011;SDS011;50211;52.768;12.124;2023-05-07T08:16:30;3.97;;;3.20;;
64011;SDS011;50211;52.768;12.124;2023-05-07T08:18:56;5.35;;;3.47;;
64011;SDS011;50211;52.768;12.124;2023-05-07T08:21:22;4.20;;;3.13;;
64011;SDS011;50211;52.768;12.124;2023-05-07T08:23:48;3.63;;;2.83;;
64011;SDS011;50211;52.768;12.124;2023-05-07T08:26:13;4.13;;;2.83;;
64011;SDS011;50211;52.768;12.124;2023-05-07T08:28:39;4.07;;;2.97;;
64011;SDS011;50211;52.768;12.124;2023-05-07T08:31:05;5.60;;;3.60;;
64011;SDS011;50211;52.768;12.124;2023-05-07T08:33:30;4.53;;;2.83;;
64011;SDS011;50211;52.768;12.124;2023-05-07T08:35:56;5.75;;;3.25;;
64011;SDS011;50211;52.768;12.124;2023-05-07T08:38:21;4.68;;;3.20;;
64011;SDS011;50211;52.768;12.124;2023-05-07T08:40:47;5.43;;;3.22;;
64011;SDS011;50211;52.768;12.124;2023-05-07T08:43:13;3.85;;;2.75;;
64011;SDS011;50211;52.768;12.124;2023-05-07T08:45:42;4.05;;;3.10;;
64011;SDS011;50211;52.768;12.124;2023-05-07T08:48:14;3.33;;;2.85;;
64011;SDS011;50211;52.768;12.124;2023-05-07T08:50:41;4.75;;;3.10;;
64011;SDS011;50211;52.768;12.124;2023-05-07T08:53:07;4.57;;;3.10;;
64011;SDS011;50211;52.768;12.124;2023-05-07T08:55:33;4.55;;;3.53;;
64011;SDS011;50211;52.768;12.124;2023-05-07T08:57:58;4.13;;;3.35;;
64011;SDS011;50211;52.768;12.124;2023-05-07T09:00:24;6.80;;;3.47;;
64011;SDS011;50211;52.768;12.124;2023-05-07T09:02:50;5.78;;;3.00;;
64011;SDS011;50211;52.768;12.124;2023-05-07T09:05:17;4.15;;;3.00;;
64011;SDS011;50211;52.768;12.124;2023-05-07T09:07:42;4.63;;;2.95;;
64011;SDS011;50211;52.768;12.124;2023-05-07T09:10:08;5.00;;;3.75;;
64011;SDS011;50211;52.768;12.124;2023-05-07T09:12:33;4.53;;;3.33;;
64011;SDS011;50211;52.768;12.124;2023-05-07T09:15:01;4.28;;;3.50;;
64011;SDS011;50211;52.768;12.124;2023-05-07T09:17:27;5.97;;;3.15;;
64011;SDS011;50211;52.768;12.124;2023-05-07T09:19:53;4.22;;;3.15;;
64011;SDS011;50211;52.768;12.124;2023-05-07T09:22:19;4.53;;;3.22;;
64011;SDS011;50211;52.768;12.124;2023-05-07T09:24:48;5.00;;;3.40;;
64011;SDS011;50211;52.768;12.124;2023-05-07T09:27:15;6.70;;;3.80;;
64011;SDS011;50211;52.768;12.124;2023-05-07T09:29:40;4.70;;;3.20;;
64011;SDS011;50211;52.768;12.124;2023-05-07T09:32:06;6.63;;;3.60;;
64011;SDS011;50211;52.768;12.124;2023-05-07T09:34:33;5.72;;;2.85;;
64011;SDS011;50211;52.768;12.124;2023-05-07T09:37:03;3.78;;;3.10;;
64011;SDS011;50211;52.768;12.124;2023-05-07T09:39:39;4.57;;;3.25;;
64011;SDS011;50211;52.768;12.124;2023-05-07T09:42:09;5.18;;;3.45;;
64011;SDS011;50211;52.768;12.124;2023-05-07T09:44:36;5.00;;;3.88;;
64011;SDS011;50211;52.768;12.124;2023-05-07T09:47:04;4.90;;;2.80;;
64011;SDS011;50211;52.768;12.124;2023-05-07T09:49:30;3.63;;;2.83;;
64011;SDS011;50211;52.768;12.124;2023-05-07T09:52:00;2.85;;;2.50;;
64011;SDS011;50211;52.768;12.124;2023-05-07T09:54:26;5.20;;;2.75;;
64011;SDS011;50211;52.768;12.124;2023-05-07T09:56:55;3.10;;;2.67;;
64011;SDS011;50211;52.768;12.124;2023-05-07T09:59:22;5.72;;;3.33;;
64011;SDS011;50211;52.768;12.124;2023-05-07T10:01:47;3.83;;;3.05;;
64011;SDS011;50211;52.768;12.124;2023-05-07T10:04:14;3.20;;;2.88;;
64011;SDS011;50211;52.768;12.124;2023-05-07T10:06:40;5.25;;;2.80;;
64011;SDS011;50211;52.768;12.124;2023-05-07T10:09:06;4.97;;;3.30;;
64011;SDS011;50211;52.768;12.124;2023-05-07T10:11:35;2.60;;;2.40;;
64011;SDS011;50211;52.768;12.124;2023-05-07T10:14:01;3.67;;;3.00;;
64011;SDS011;50211;52.768;12.124;2023-05-07T10:16:31;3.65;;;2.80;;
64011;SDS011;50211;52.768;12.124;2023-05-07T10:19:04;4.32;;;2.80;;
64011;SDS011;50211;52.768;12.124;2023-05-07T10:21:37;3.45;;;2.83;;
64011;SDS011;50211;52.768;12.124;2023-05-07T10:26:56;4.53;;;2.92;;
64011;SDS011;50211;52.768;12.124;2023-05-07T10:30:01;4.90;;;3.35;;
64011;SDS011;50211;52.768;12.124;2023-05-07T10:34:57;3.00;;;2.63;;
64011;SDS011;50211;52.768;12.124;2023-05-07T10:37:25;4.15;;;2.78;;
64011;SDS011;50211;52.768;12.124;2023-05-07T10:39:51;4.65;;;2.80;;
64011;SDS011;50211;52.768;12.124;2023-05-07T10:42:17;3.00;;;2.40;;
64011;SDS011;50211;52.768;12.124;2023-05-07T10:44:43;3.67;;;2.47;;
64011;SDS011;50211;52.768;12.124;2023-05-07T10:47:09;4.72;;;2.58;;
64011;SDS011;50211;52.768;12.124;2023-05-07T10:52:12;5.85;;;3.22;;
64011;SDS011;50211;52.768;12.124;2023-05-07T10:54:42;4.55;;;2.70;;
64011;SDS011;50211;52.768;12.124;2023-05-07T10:57:51;2.55;;;2.30;;
64011;SDS011;50211;52.768;12.124;2023-05-07T11:00:02;3.97;;;2.60;;
64011;SDS011;50211;52.768;12.124;2023-05-07T11:05:30;5.63;;;2.65;;
64011;SDS011;50211;52.768;12.124;2023-05-07T11:08:00;2.80;;;2.15;;
64011;SDS011;50211;52.768;12.124;2023-05-07T11:13:43;2.30;;;2.10;;
64011;SDS011;50211;52.768;12.124;2023-05-07T11:16:21;3.70;;;2.50;;
64011;SDS011;50211;52.768;12.124;2023-05-07T11:18:49;2.33;;;2.13;;
64011;SDS011;50211;52.768;12.124;2023-05-07T11:21:31;3.28;;;2.80;;
64011;SDS011;50211;52.768;12.124;2023-05-07T11:24:00;4.72;;;2.60;;
64011;SDS011;50211;52.768;12.124;2023-05-07T11:26:27;6.20;;;2.58;;
64011;SDS011;50211;52.768;12.124;2023-05-07T11:28:56;2.08;;;1.88;;
64011;SDS011;50211;52.768;12.124;2023-05-07T11:31:25;4.13;;;2.40;;
64011;SDS011;50211;52.768;12.124;2023-05-07T11:33:53;3.65;;;2.53;;
64011;SDS011;50211;52.768;12.124;2023-05-07T11:36:21;3.00;;;1.92;;
64011;SDS011;50211;52.768;12.124;2023-05-07T11:38:47;4.07;;;2.30;;
64011;SDS011;50211;52.768;12.124;2023-05-07T11:41:13;2.83;;;2.40;;
64011;SDS011;50211;52.768;12.124;2023-05-07T11:43:52;7.50;;;2.10;;
64011;SDS011;50211;52.768;12.124;2023-05-07T11:46:22;3.42;;;2.10;;
64011;SDS011;50211;52.768;12.124;2023-05-07T11:48:48;4.60;;;2.30;;
64011;SDS011;50211;52.768;12.124;2023-05-07T11:51:18;2.70;;;2.40;;
64011;SDS011;50211;52.768;12.124;2023-05-07T11:53:44;2.80;;;2.53;;
64011;SDS011;50211;52.768;12.124;2023-05-07T11:56:11;3.15;;;2.13;;
64011;SDS011;50211;52.768;12.124;2023-05-07T11:58:40;3.10;;;2.53;;
64011;SDS011;50211;52.768;12.124;2023-05-07T12:01:07;2.72;;;2.00;;
64011;SDS011;50211;52.768;12.124;2023-05-07T12:03:34;4.20;;;2.63;;
64011;SDS011;50211;52.768;12.124;2023-05-07T12:06:02;3.70;;;1.92;;
64011;SDS011;50211;52.768;12.124;2023-05-07T12:08:28;4.35;;;2.40;;
64011;SDS011;50211;52.768;12.124;2023-05-07T12:10:53;2.80;;;2.35;;
64011;SDS011;50211;52.768;12.124;2023-05-07T12:13:25;2.50;;;2.30;;
64011;SDS011;50211;52.768;12.124;2023-05-07T12:15:54;4.32;;;2.88;;
64011;SDS011;50211;52.768;12.124;2023-05-07T12:18:21;3.45;;;2.50;;
64011;SDS011;50211;52.768;12.124;2023-05-07T12:20:48;2.95;;;2.15;;
64011;SDS011;50211;52.768;12.124;2023-05-07T12:23:14;4.05;;;2.33;;
64011;SDS011;50211;52.768;12.124;2023-05-07T12:25:41;2.70;;;2.30;;
64011;SDS011;50211;52.768;12.124;2023-05-07T12:28:14;3.83;;;2.22;;
64011;SDS011;50211;52.768;12.124;2023-05-07T12:30:44;2.95;;;2.10;;
64011;SDS011;50211;52.768;12.124;2023-05-07T12:33:11;2.60;;;2.17;;
64011;SDS011;50211;52.768;12.124;2023-05-07T12:35:41;3.28;;;2.35;;
64011;SDS011;50211;52.768;12.124;2023-05-07T12:38:08;2.70;;;2.42;;
64011;SDS011;50211;52.768;12.124;2023-05-07T12:40:41;2.70;;;2.08;;
64011;SDS011;50211;52.768;12.124;2023-05-07T12:43:25;3.58;;;2.25;;
64011;SDS011;50211;52.768;12.124;2023-05-07T12:45:53;3.17;;;2.30;;
64011;SDS011;50211;52.768;12.124;2023-05-07T12:48:20;2.53;;;2.22;;
64011;SDS011;50211;52.768;12.124;2023-05-07T12:50:50;3.00;;;2.20;;
64011;SDS011;50211;52.768;12.124;2023-05-07T12:53:17;3.92;;;2.10;;
64011;SDS011;50211;52.768;12.124;2023-05-07T12:55:49;1.85;;;1.55;;
64011;SDS011;50211;52.768;12.124;2023-05-07T12:58:19;4.75;;;1.83;;
64011;SDS011;50211;52.768;12.124;2023-05-07T13:00:49;2.75;;;1.55;;
64011;SDS011;50211;52.768;12.124;2023-05-07T13:03:29;2.85;;;1.83;;
64011;SDS011;50211;52.768;12.124;2023-05-07T13:08:28;3.13;;;2.40;;
64011;SDS011;50211;52.768;12.124;2023-05-07T13:10:58;4.47;;;2.30;;
64011;SDS011;50211;52.768;12.124;2023-05-07T13:13:27;4.75;;;2.20;;
64011;SDS011;50211;52.768;12.124;2023-05-07T13:15:53;3.97;;;2.40;;
64011;SDS011;50211;52.768;12.124;2023-05-07T13:18:19;5.35;;;2.80;;
64011;SDS011;50211;52.768;12.124;2023-05-07T13:20:44;3.72;;;2.30;;
64011;SDS011;50211;52.768;12.124;2023-05-07T13:23:09;7.68;;;2.28;;
64011;SDS011;50211;52.768;12.124;2023-05-07T13:25:35;3.63;;;1.88;;
64011;SDS011;50211;52.768;12.124;2023-05-07T13:28:00;3.55;;;1.80;;
64011;SDS011;50211;52.768;12.124;2023-05-07T13:30:26;1.50;;;1.40;;
64011;SDS011;50211;52.768;12.124;2023-05-07T13:32:53;5.05;;;1.90;;
64011;SDS011;50211;52.768;12.124;2023-05-07T13:35:20;1.98;;;1.65;;
64011;SDS011;50211;52.768;12.124;2023-05-07T13:37:46;3.30;;;1.95;;
64011;SDS011;50211;52.768;12.124;2023-05-07T13:40:13;1.95;;;1.58;;
64011;SDS011;50211;52.768;12.124;2023-05-07T13:42:38;4.18;;;1.80;;
64011;SDS011;50211;52.768;12.124;2023-05-07T13:45:04;4.25;;;1.60;;
64011;SDS011;50211;52.768;12.124;2023-05-07T13:47:30;1.27;;;1.17;;
64011;SDS011;50211;52.768;12.124;2023-05-07T13:49:56;1.80;;;1.23;;
64011;SDS011;50211;52.768;12.124;2023-05-07T13:52:21;1.80;;;1.40;;
64011;SDS011;50211;52.768;12.124;2023-05-07T13:54:47;2.25;;;1.70;;
64011;SDS011;50211;52.768;12.124;2023-05-07T13:57:12;2.03;;;1.42;;
64011;SDS011;50211;52.768;12.124;2023-05-07T13:59:38;1.52;;;1.20;;
64011;SDS011;50211;52.768;12.124;2023-05-07T14:02:03;3.35;;;1.55;;
64011;SDS011;50211;52.768;12.124;2023-05-07T14:04:30;4.35;;;1.90;;
64011;SDS011;50211;52.768;12.124;2023-05-07T14:06:55;2.75;;;1.30;;
64011;SDS011;50211;52.768;12.124;2023-05-07T14:09:21;7.15;;;1.63;;
64011;SDS011;50211;52.768;12.124;2023-05-07T14:11:47;14.90;;;1.80;;
64011;SDS011;50211;52.768;12.124;2023-05-07T14:14:16;3.17;;;1.65;;
64011;SDS011;50211;52.768;12.124;2023-05-07T14:16:44;1.60;;;1.40;;
64011;SDS011;50211;52.768;12.124;2023-05-07T14:19:11;7.22;;;1.63;;
64011;SDS011;50211;52.768;12.124;2023-05-07T14:21:37;4.97;;;1.40;;
64011;SDS011;50211;52.768;12.124;2023-05-07T14:24:02;1.70;;;1.48;;
64011;SDS011;50211;52.768;12.124;2023-05-07T14:26:28;1.60;;;1.50;;
64011;SDS011;50211;52.768;12.124;2023-05-07T14:28:54;2.65;;;1.10;;
64011;SDS011;50211;52.768;12.124;2023-05-07T14:31:22;1.90;;;1.33;;
64011;SDS011;50211;52.768;12.124;2023-05-07T14:33:48;1.75;;;1.40;;
64011;SDS011;50211;52.768;12.124;2023-05-07T14:36:15;2.55;;;1.38;;
64011;SDS011;50211;52.768;12.124;2023-05-07T14:38:40;1.35;;;1.20;;
64011;SDS011;50211;52.768;12.124;2023-05-07T14:41:06;1.50;;;1.38;;